Time;durP1;ratioP1;P1;durP2;ratioP2;P2;SDS_P1;SDS_P2;PMS_P1;PMS_P2;Temp;Humidity;BMP_temperature;BMP_pressure;BME280_temperature;BME280_humidity;BME280_pressure;Samples;Min_cycle;Max_cycle;Signal;HPM_P1;HPM_P2
2021/01/03 00:02:18;;;;;;;59.28;28.88;;;4.40;92.60;;;;;;6129642;23;20456;-87
2021/01/03 00:04:52;;;;;;;64.07;29.60;;;4.40;92.70;;;;;;6154769;23;20148;-86
2021/01/03 00:07:41;;;;;;;59.58;28.05;;;4.30;92.60;;;;;;6129898;23;20053;-89
2021/01/03 00:10:30;;;;;;;65.63;31.60;;;4.40;92.70;;;;;;6130954;23;20002;-86
2021/01/03 00:13:18;;;;;;;63.53;29.48;;;4.30;92.70;;;;;;6140132;23;20092;-87
2021/01/03 00:15:52;;;;;;;64.55;30.77;;;4.30;92.70;;;;;;6132851;23;20005;-87
2021/01/03 00:18:23;;;;;;;66.22;30.25;;;4.30;92.70;;;;;;6105689;23;20068;-91
2021/01/03 00:20:58;;;;;;;60.03;27.98;;;4.30;92.70;;;;;;6153861;23;20460;-88
2021/01/03 00:23:36;;;;;;;61.67;28.30;;;4.30;92.80;;;;;;6128316;23;20044;-87
2021/01/03 00:26:20;;;;;;;64.38;28.88;;;4.30;92.80;;;;;;6153814;23;20084;-88
2021/01/03 00:28:51;;;;;;;64.70;31.33;;;4.30;92.80;;;;;;6153707;23;20405;-89
2021/01/03 00:31:27;;;;;;;63.17;28.65;;;4.30;92.80;;;;;;6153925;23;20101;-87
2021/01/03 00:33:56;;;;;;;59.78;29.58;;;4.30;92.80;;;;;;6130283;23;20416;-88
2021/01/03 00:36:24;;;;;;;57.67;27.75;;;4.30;92.80;;;;;;6154961;23;20001;-86
2021/01/03 00:39:14;;;;;;;52.88;26.80;;;4.30;92.80;;;;;;6130163;23;20005;-87
2021/01/03 00:42:10;;;;;;;54.95;25.75;;;4.30;92.90;;;;;;6154016;23;20755;-87
2021/01/03 00:47:34;;;;;;;57.40;27.85;;;4.30;92.80;;;;;;6137498;23;20017;-89
2021/01/03 00:50:13;;;;;;;54.70;25.83;;;4.30;92.70;;;;;;6153053;23;20092;-86
2021/01/03 00:52:42;;;;;;;63.90;28.15;;;4.30;92.80;;;;;;6153618;23;20010;-87
2021/01/03 00:55:21;;;;;;;67.85;30.15;;;4.30;92.80;;;;;;6129309;23;20012;-89
2021/01/03 00:58:16;;;;;;;61.25;27.60;;;4.30;92.80;;;;;;6130865;23;20006;-86
2021/01/03 01:00:49;;;;;;;58.70;27.55;;;4.20;92.70;;;;;;6152914;23;20013;-88
2021/01/03 01:03:25;;;;;;;60.88;27.58;;;4.20;92.80;;;;;;6129191;23;20079;-90
2021/01/03 01:05:58;;;;;;;57.30;26.17;;;4.20;92.70;;;;;;6155139;23;20002;-88
2021/01/03 01:08:32;;;;;;;55.20;25.03;;;4.20;92.80;;;;;;6153022;23;20055;-88
2021/01/03 01:11:03;;;;;;;49.20;24.10;;;4.20;92.80;;;;;;6154066;23;20237;-86
2021/01/03 01:13:35;;;;;;;48.22;23.92;;;4.30;92.80;;;;;;6154297;23;20006;-87
2021/01/03 01:16:21;;;;;;;;;;;;;;;;;;;;;
2021/01/03 01:19:15;;;;;;;;;;;;;;;;;;;;;
2021/01/03 01:22:03;;;;;;;51.35;23.50;;;4.20;92.70;;;;;;6155339;23;20096;-88
2021/01/03 01:24:38;;;;;;;51.30;25.30;;;4.30;92.80;;;;;;6131160;23;20037;-87
2021/01/03 01:27:04;;;;;;;48.88;24.67;;;4.20;92.70;;;;;;6154777;23;20002;-88
2021/01/03 01:29:48;;;;;;;;;;;;;;;;;;;;;
2021/01/03 01:32:17;;;;;;;45.15;23.58;;;4.20;92.70;;;;;;6153694;23;20566;-86
2021/01/03 01:34:54;;;;;;;56.67;25.60;;;4.20;92.90;;;;;;6128778;23;20455;-89
2021/01/03 01:37:41;;;;;;;;;;;;;;;;;;;;;
2021/01/03 01:40:22;;;;;;;46.63;24.73;;;4.20;92.60;;;;;;6152830;23;20081;-86
2021/01/03 01:43:09;;;;;;;43.83;22.95;;;4.20;92.60;;;;;;6152588;23;20015;-88
2021/01/03 01:45:47;;;;;;;48.15;23.95;;;4.20;92.60;;;;;;6130289;23;20088;-88
2021/01/03 01:48:36;;;;;;;43.35;22.38;;;4.20;92.60;;;;;;6153599;23;20005;-88
2021/01/03 01:51:40;;;;;;;51.72;24.05;;;4.20;92.60;;;;;;6152949;23;20006;-87
2021/01/03 01:54:26;;;;;;;51.25;24.52;;;4.30;92.60;;;;;;6110803;23;20005;-87
2021/01/03 01:57:06;;;;;;;49.08;24.13;;;4.20;92.50;;;;;;6151293;23;20001;-88
2021/01/03 01:59:49;;;;;;;51.75;23.23;;;4.20;92.50;;;;;;6153270;23;20001;-88
2021/01/03 02:02:33;;;;;;;;;;;;;;;;;;;;;
2021/01/03 02:05:11;;;;;;;54.42;26.15;;;4.20;92.40;;;;;;6154708;23;20396;-89
2021/01/03 02:11:01;;;;;;;52.58;24.92;;;4.20;92.50;;;;;;6154139;23;20009;-85
2021/01/03 02:13:34;;;;;;;52.53;26.52;;;4.20;92.50;;;;;;6152774;23;20036;-87
2021/01/03 02:16:25;;;;;;;51.40;24.67;;;4.20;92.50;;;;;;6154032;23;20009;-87
2021/01/03 02:19:10;;;;;;;46.90;23.93;;;4.20;92.50;;;;;;6152551;23;20020;-87
2021/01/03 02:22:07;;;;;;;54.75;24.80;;;4.10;92.50;;;;;;6152696;23;20563;-87
2021/01/03 02:25:15;;;;;;;49.15;23.42;;;4.20;92.50;;;;;;6153341;23;20347;-88
2021/01/03 02:27:59;;;;;;;51.72;24.02;;;4.20;92.50;;;;;;6142532;23;20006;-87
2021/01/03 02:30:27;;;;;;;47.53;23.48;;;4.30;92.50;;;;;;6153628;23;20487;-88
2021/01/03 02:33:32;;;;;;;44.70;22.98;;;4.30;92.50;;;;;;6153054;23;20383;-86
2021/01/03 02:36:30;;;;;;;44.63;22.55;;;4.20;92.50;;;;;;6140702;23;20009;-86
2021/01/03 02:39:07;;;;;;;46.63;21.70;;;4.20;92.50;;;;;;6152302;23;20002;-86
2021/01/03 02:41:35;;;;;;;47.72;23.27;;;4.20;92.50;;;;;;6153545;23;20009;-89
2021/01/03 02:44:18;;;;;;;;;;;;;;;;;;;;;
2021/01/03 02:46:47;;;;;;;49.47;24.23;;;4.20;92.50;;;;;;6153154;23;20085;-86
2021/01/03 02:49:22;;;;;;;48.60;23.73;;;4.20;92.50;;;;;;6151761;23;20005;-89
2021/01/03 02:51:49;;;;;;;50.80;22.90;;;4.20;92.50;;;;;;6153110;23;20064;-87
2021/01/03 02:54:29;;;;;;;54.55;25.83;;;4.30;92.60;;;;;;6152993;23;20451;-89
2021/01/03 02:56:59;;;;;;;55.75;25.58;;;4.20;92.50;;;;;;6107948;23;20013;-86
2021/01/03 02:59:26;;;;;;;53.50;25.50;;;4.30;92.60;;;;;;6129545;23;20005;-88
2021/01/03 03:02:00;;;;;;;56.65;26.00;;;4.20;92.50;;;;;;6153115;23;19997;-86
2021/01/03 03:04:26;;;;;;;54.80;26.23;;;4.20;92.50;;;;;;6130364;23;20014;-89
2021/01/03 03:06:55;;;;;;;58.03;26.23;;;4.20;92.50;;;;;;6152919;23;20008;-87
2021/01/03 03:09:28;;;;;;;58.45;24.95;;;4.20;92.60;;;;;;6153289;23;20012;-87
2021/01/03 03:11:56;;;;;;;59.30;27.58;;;4.30;92.60;;;;;;6153089;23;20005;-86
2021/01/03 03:14:27;;;;;;;55.90;26.58;;;4.30;92.60;;;;;;6153411;23;20025;-87
2021/01/03 03:17:02;;;;;;;54.15;24.98;;;4.20;92.50;;;;;;6128565;23;20479;-86
2021/01/03 03:19:27;;;;;;;61.83;28.15;;;4.30;92.60;;;;;;6152988;23;20328;-87
2021/01/03 03:22:03;;;;;;;58.70;26.88;;;4.30;92.60;;;;;;6152987;23;20009;-88
2021/01/03 03:24:41;;;;;;;63.30;28.23;;;4.30;92.80;;;;;;6128412;23;20010;-87
2021/01/03 03:27:16;;;;;;;61.03;27.30;;;4.30;92.60;;;;;;6153226;23;20002;-88
2021/01/03 03:29:47;;;;;;;63.22;29.80;;;4.30;92.60;;;;;;6153335;23;20409;-87
2021/01/03 03:32:15;;;;;;;71.25;30.75;;;4.30;92.60;;;;;;6130974;23;20037;-87
2021/01/03 03:35:01;;;;;;;58.33;27.27;;;4.30;92.60;;;;;;6154164;23;20005;-89
2021/01/03 03:37:30;;;;;;;62.30;28.55;;;4.30;92.60;;;;;;6133314;23;20016;-86
2021/01/03 03:39:58;;;;;;;59.25;27.02;;;4.30;92.60;;;;;;6155173;23;20021;-88
2021/01/03 03:42:26;;;;;;;61.92;28.48;;;4.30;92.60;;;;;;6154650;23;20007;-87
2021/01/03 03:44:58;;;;;;;60.15;28.42;;;4.20;92.60;;;;;;6153911;23;20012;-87
2021/01/03 03:47:29;;;;;;;65.68;29.92;;;4.30;92.60;;;;;;6154614;23;20336;-87
2021/01/03 03:50:08;;;;;;;61.10;27.23;;;4.30;92.60;;;;;;6154365;23;20028;-86
2021/01/03 03:52:36;;;;;;;65.18;28.00;;;4.30;92.60;;;;;;6156052;23;20064;-89
2021/01/03 03:55:08;;;;;;;58.35;28.15;;;4.20;92.70;;;;;;6152477;23;20008;-87
2021/01/03 03:57:43;;;;;;;61.95;27.13;;;4.30;92.60;;;;;;6130347;23;20025;-87
2021/01/03 04:00:23;;;;;;;59.08;27.45;;;4.20;92.60;;;;;;6153284;23;20027;-87
2021/01/03 04:03:02;;;;;;;60.07;28.50;;;4.30;92.60;;;;;;6153865;23;20010;-87
2021/01/03 04:05:30;;;;;;;67.93;30.50;;;4.30;92.60;;;;;;6131307;23;20048;-87
2021/01/03 04:07:59;;;;;;;65.80;29.63;;;4.20;92.50;;;;;;6127619;23;20012;-87
2021/01/03 04:10:24;;;;;;;63.35;29.95;;;4.20;92.50;;;;;;6129796;23;20459;-87
2021/01/03 04:12:53;;;;;;;63.45;28.55;;;4.30;92.50;;;;;;6153367;23;20060;-87
2021/01/03 04:15:29;;;;;;;59.92;28.50;;;4.30;92.50;;;;;;6154183;23;20305;-87
2021/01/03 04:18:14;;;;;;;60.50;28.42;;;4.20;92.50;;;;;;6129761;23;20092;-88
2021/01/03 04:20:45;;;;;;;66.28;30.40;;;4.30;92.50;;;;;;6154938;23;20013;-87
2021/01/03 04:23:16;;;;;;;64.38;29.00;;;4.20;92.50;;;;;;6153967;23;20392;-86
2021/01/03 04:25:42;;;;;;;69.88;30.77;;;4.30;92.50;;;;;;6130846;23;20036;-88
2021/01/03 04:28:15;;;;;;;62.60;30.40;;;4.20;92.50;;;;;;6156351;23;20416;-87
2021/01/03 04:30:52;;;;;;;65.93;29.77;;;4.20;92.50;;;;;;6154607;23;20320;-89
2021/01/03 04:33:18;;;;;;;65.20;28.73;;;4.20;92.50;;;;;;6131596;23;20005;-87
2021/01/03 04:35:46;;;;;;;62.30;28.42;;;4.30;92.50;;;;;;6153331;23;20001;-88
2021/01/03 04:38:15;;;;;;;69.65;30.38;;;4.30;92.50;;;;;;6153534;23;20012;-86
2021/01/03 04:40:48;;;;;;;64.80;29.05;;;4.20;92.80;;;;;;6130432;23;20324;-90
2021/01/03 04:43:30;;;;;;;63.85;28.70;;;4.20;92.50;;;;;;6154781;23;20008;-88
2021/01/03 04:46:09;;;;;;;63.67;29.48;;;4.20;92.50;;;;;;6153558;23;20006;-88
2021/01/03 04:48:38;;;;;;;73.03;31.30;;;4.20;92.50;;;;;;6153563;23;20007;-87
2021/01/03 04:51:27;;;;;;;65.47;29.17;;;4.20;92.50;;;;;;6155307;23;20006;-89
2021/01/03 04:54:37;;;;;;;72.35;32.17;;;4.20;92.50;;;;;;6154007;23;20013;-88
2021/01/03 04:57:12;;;;;;;62.95;28.67;;;4.20;92.50;;;;;;6152443;23;20029;-87
2021/01/03 04:59:49;;;;;;;71.85;33.15;;;4.30;92.50;;;;;;6154511;23;20011;-86
2021/01/03 05:02:34;;;;;;;69.78;30.65;;;4.20;92.50;;;;;;6153458;23;20387;-87
2021/01/03 05:05:51;;;;;;;65.53;31.00;;;4.20;92.50;;;;;;6154300;23;20009;-86
2021/01/03 05:09:03;;;;;;;74.88;33.28;;;4.20;92.60;;;;;;6073942;23;20041;-87
2021/01/03 05:12:02;;;;;;;74.75;30.98;;;4.20;92.50;;;;;;6069501;23;20010;-88
2021/01/03 05:15:20;;;;;;;61.00;29.92;;;4.20;92.50;;;;;;6069348;23;20010;-88
2021/01/03 05:17:56;;;;;;;;;;;;;;;;;;;;;
2021/01/03 05:20:32;;;;;;;63.65;30.10;;;4.20;92.50;;;;;;6150722;23;20076;-87
2021/01/03 05:23:23;;;;;;;68.70;31.83;;;4.20;92.50;;;;;;6150230;23;20424;-88
2021/01/03 05:25:53;;;;;;;71.18;31.73;;;4.10;92.50;;;;;;6148609;23;20336;-87
2021/01/03 05:28:23;;;;;;;72.38;32.08;;;4.20;92.50;;;;;;6153180;23;20059;-88
2021/01/03 05:30:49;;;;;;;69.25;32.42;;;4.10;92.50;;;;;;6152665;23;20008;-88
2021/01/03 05:33:37;;;;;;;68.40;31.95;;;4.10;92.50;;;;;;6128390;23;20237;-88
2021/01/03 05:36:21;;;;;;;63.17;29.17;;;4.20;92.50;;;;;;6152846;23;19998;-88
2021/01/03 05:38:49;;;;;;;64.55;29.85;;;4.10;92.50;;;;;;6153944;23;20005;-91
2021/01/03 05:41:38;;;;;;;64.10;30.95;;;4.10;92.80;;;;;;6152525;23;20028;-90
2021/01/03 05:44:34;;;;;;;65.03;30.17;;;4.10;92.50;;;;;;6153866;23;20010;-87
2021/01/03 05:47:05;;;;;;;62.28;29.33;;;4.10;92.50;;;;;;6116400;23;20012;-88
2021/01/03 05:49:33;;;;;;;58.13;28.80;;;4.20;92.50;;;;;;6154057;23;20404;-87
2021/01/03 05:52:30;;;;;;;62.30;30.75;;;4.20;92.50;;;;;;6128535;23;20092;-86
2021/01/03 05:55:14;;;;;;;;;;;;;;;;;;;;;
2021/01/03 05:57:48;;;;;;;66.68;31.50;;;4.20;92.50;;;;;;6154999;23;20077;-88
2021/01/03 06:00:24;;;;;;;64.95;30.58;;;4.20;92.50;;;;;;6154267;23;20369;-89
2021/01/03 06:02:59;;;;;;;64.15;31.52;;;4.20;92.50;;;;;;6153476;23;20002;-88
2021/01/03 06:05:32;;;;;;;64.50;31.02;;;4.20;92.50;;;;;;6153945;23;20025;-87
2021/01/03 06:08:14;;;;;;;57.90;29.60;;;4.20;92.40;;;;;;6153575;23;20002;-87
2021/01/03 06:10:43;;;;;;;65.43;31.35;;;4.20;92.50;;;;;;6153508;23;20002;-87
2021/01/03 06:13:22;;;;;;;67.57;32.70;;;4.20;92.40;;;;;;6152864;23;20009;-90
2021/01/03 06:15:59;;;;;;;61.70;31.65;;;4.20;92.40;;;;;;6152241;23;20009;-89
2021/01/03 06:18:47;;;;;;;58.88;28.38;;;4.20;92.40;;;;;;6153184;23;20016;-87
2021/01/03 06:24:27;;;;;;;61.83;31.47;;;4.30;92.50;;;;;;6155002;23;20021;-87
2021/01/03 06:27:01;;;;;;;58.65;30.17;;;4.20;92.40;;;;;;6153249;23;20320;-87
2021/01/03 06:29:42;;;;;;;62.38;30.70;;;4.20;92.40;;;;;;6153561;23;20010;-87
2021/01/03 06:32:37;;;;;;;61.58;30.95;;;4.30;92.40;;;;;;6154949;23;20001;-87
2021/01/03 06:35:32;;;;;;;60.00;31.50;;;4.30;92.40;;;;;;6153825;23;19997;-87
2021/01/03 06:38:26;;;;;;;59.40;29.55;;;4.20;92.40;;;;;;6153159;23;20156;-86
2021/01/03 06:41:12;;;;;;;53.50;28.45;;;4.20;92.40;;;;;;6152208;23;20350;-86
2021/01/03 06:44:10;;;;;;;60.05;30.58;;;4.20;92.40;;;;;;6152749;23;20439;-86
2021/01/03 06:46:42;;;;;;;63.75;31.35;;;4.20;92.40;;;;;;6148588;23;20009;-87
2021/01/03 06:49:39;;;;;;;58.22;31.30;;;4.20;92.40;;;;;;6153347;23;20328;-86
2021/01/03 06:52:36;;;;;;;56.55;29.60;;;4.20;92.40;;;;;;6152957;23;20013;-87
2021/01/03 06:55:01;;;;;;;57.63;29.77;;;4.20;92.30;;;;;;6152107;23;20041;-86
2021/01/03 06:57:43;;;;;;;56.60;28.80;;;4.20;92.30;;;;;;6153061;23;20009;-86
2021/01/03 07:00:33;;;;;;;56.33;29.40;;;4.30;92.40;;;;;;6152774;23;20050;-87
2021/01/03 07:03:16;;;;;;;54.53;29.27;;;4.30;92.30;;;;;;6153103;23;20092;-88
2021/01/03 07:06:11;;;;;;;53.78;28.65;;;4.30;92.30;;;;;;6154668;23;20010;-88
2021/01/03 07:08:52;;;;;;;55.40;30.60;;;4.20;92.30;;;;;;6155221;23;20021;-88
2021/01/03 07:12:09;;;;;;;53.22;27.52;;;4.20;92.20;;;;;;6154499;23;20006;-87
2021/01/03 07:14:37;;;;;;;55.90;28.88;;;4.30;92.20;;;;;;6126100;23;20006;-87
2021/01/03 07:17:18;;;;;;;51.78;28.05;;;4.30;92.10;;;;;;6154140;23;20052;-86
2021/01/03 07:20:01;;;;;;;54.13;29.67;;;4.30;92.10;;;;;;6154916;23;20008;-87
2021/01/03 07:22:42;;;;;;;47.60;27.05;;;4.20;92.00;;;;;;6154950;23;20005;-86
2021/01/03 07:25:28;;;;;;;52.72;26.83;;;4.20;91.90;;;;;;6154492;23;20382;-86
2021/01/03 07:28:15;;;;;;;49.10;25.35;;;4.20;91.90;;;;;;6156416;23;20001;-86
2021/01/03 07:31:19;;;;;;;49.35;25.88;;;4.20;92.00;;;;;;6154810;23;19997;-86
2021/01/03 07:33:53;;;;;;;51.50;26.75;;;4.20;91.90;;;;;;6153929;23;20028;-87
2021/01/03 07:37:01;;;;;;;53.17;27.83;;;4.20;91.80;;;;;;6154103;23;20065;-86
2021/01/03 07:39:54;;;;;;;48.85;26.55;;;4.20;91.80;;;;;;6155096;23;20001;-86
2021/01/03 07:43:06;;;;;;;44.17;25.65;;;4.20;91.70;;;;;;6153884;23;20421;-86
2021/01/03 07:45:37;;;;;;;43.70;24.75;;;4.20;91.70;;;;;;6155353;23;20012;-86
2021/01/03 07:48:03;;;;;;;43.65;25.35;;;4.20;91.70;;;;;;6154178;23;20012;-87
2021/01/03 07:51:03;;;;;;;47.15;26.33;;;4.20;91.60;;;;;;6154681;23;20001;-87
2021/01/03 07:53:40;;;;;;;47.08;24.33;;;4.20;91.40;;;;;;6113866;23;20005;-87
2021/01/03 07:56:42;;;;;;;;;;;;;;;;;;;;;
2021/01/03 07:59:21;;;;;;;;;;;;;;;;;;;;;
2021/01/03 08:01:56;;;;;;;46.90;24.92;;;4.10;91.30;;;;;;6156477;23;20081;-85
2021/01/03 08:04:34;;;;;;;44.70;24.75;;;4.10;91.30;;;;;;6154763;23;20002;-87
2021/01/03 08:07:12;;;;;;;42.63;23.33;;;4.10;91.30;;;;;;6155058;23;20419;-86
2021/01/03 08:09:59;;;;;;;45.50;24.58;;;4.10;91.20;;;;;;6154709;23;20491;-86
2021/01/03 08:12:33;;;;;;;38.80;22.40;;;4.10;91.20;;;;;;6154660;23;20025;-87
2021/01/03 08:15:33;;;;;;;41.15;24.10;;;4.10;91.10;;;;;;6155581;23;20017;-88
2021/01/03 08:18:49;;;;;;;38.47;21.77;;;4.10;91.10;;;;;;6119295;23;20025;-88
2021/01/03 08:21:38;;;;;;;;;;;;;;;;;;;;;
2021/01/03 08:24:14;;;;;;;41.13;22.50;;;4.10;91.10;;;;;;6154553;23;20495;-90
2021/01/03 08:27:31;;;;;;;44.15;23.15;;;4.10;91.00;;;;;;6155239;23;20005;-88
2021/01/03 08:34:23;;;;;;;36.75;21.50;;;4.20;91.00;;;;;;6137666;23;20089;-88
2021/01/03 08:37:45;;;;;;;;;;;;;;;;;;;;;
2021/01/03 08:43:43;;;;;;;;;;;;;;;;;;;;;
2021/01/03 08:46:33;;;;;;;36.88;20.33;;;4.10;90.70;;;;;;6155693;23;20077;-88
2021/01/03 08:52:54;;;;;;;;;;;;;;;;;;;;;
2021/01/03 08:55:34;;;;;;;39.17;22.42;;;4.10;90.60;;;;;;6155659;23;20424;-87
2021/01/03 08:58:16;;;;;;;38.55;21.02;;;4.10;90.30;;;;;;6155507;23;20084;-87
2021/01/03 09:01:08;;;;;;;;;;;;;;;;;;;;;
2021/01/03 09:04:03;;;;;;;;;;;;;;;;;;;;;
2021/01/03 09:06:55;;;;;;;33.75;19.10;;;4.10;90.50;;;;;;6157047;23;20076;-87
2021/01/03 09:09:29;;;;;;;33.38;18.83;;;4.10;90.40;;;;;;6112580;23;20028;-87
2021/01/03 09:12:04;;;;;;;29.95;18.23;;;4.10;90.10;;;;;;6154467;23;20006;-90
2021/01/03 09:15:20;;;;;;;;;;;;;;;;;;;;;
2021/01/03 09:18:08;;;;;;;33.17;17.70;;;4.10;89.80;;;;;;6138191;23;20112;-88
2021/01/03 09:20:55;;;;;;;29.27;17.15;;;4.10;89.90;;;;;;6155266;23;20335;-88
2021/01/03 09:23:37;;;;;;;;;;;;;;;;;;;;;
2021/01/03 09:26:21;;;;;;;30.05;16.35;;;4.10;89.50;;;;;;6156668;23;20072;-87
2021/01/03 09:29:12;;;;;;;29.73;16.88;;;4.10;89.20;;;;;;6155138;23;20006;-87
2021/01/03 09:32:10;;;;;;;;;;;;;;;;;;;;;
2021/01/03 09:34:51;;;;;;;25.60;15.10;;;4.10;88.60;;;;;;6156469;23;20085;-87
2021/01/03 09:37:28;;;;;;;25.63;14.68;;;4.10;88.20;;;;;;6155087;23;20005;-88
2021/01/03 09:40:50;;;;;;;23.08;13.68;;;4.10;88.00;;;;;;6155558;23;19998;-89
2021/01/03 09:43:51;;;;;;;22.35;12.98;;;4.10;88.10;;;;;;6095037;23;20475;-87
2021/01/03 09:46:40;;;;;;;21.83;13.13;;;4.10;88.00;;;;;;6154814;23;20149;-87
2021/01/03 09:49:40;;;;;;;18.55;12.18;;;4.10;87.60;;;;;;6155240;23;20434;-87
2021/01/03 09:52:28;;;;;;;20.60;12.98;;;4.10;87.70;;;;;;6107498;23;20006;-87
2021/01/03 09:55:03;;;;;;;21.17;12.13;;;4.10;86.70;;;;;;6154886;23;20005;-89
2021/01/03 09:58:11;;;;;;;18.67;11.05;;;4.10;86.30;;;;;;6154951;23;20002;-88
2021/01/03 10:01:25;;;;;;;19.02;11.63;;;4.10;86.60;;;;;;6074473;23;20030;-86
2021/01/03 10:04:13;;;;;;;18.33;11.35;;;4.10;86.00;;;;;;6155657;23;20514;-87
2021/01/03 10:07:36;;;;;;;18.80;10.98;;;4.10;85.70;;;;;;6156405;23;20040;-87
2021/01/03 10:10:11;;;;;;;17.95;10.18;;;4.10;85.80;;;;;;6144196;23;20005;-88
2021/01/03 10:12:43;;;;;;;19.23;10.82;;;4.10;86.70;;;;;;6154399;23;20041;-88
2021/01/03 10:15:49;;;;;;;18.08;10.50;;;4.10;85.70;;;;;;6153981;23;20012;-87
2021/01/03 10:18:36;;;;;;;17.20;10.77;;;4.20;85.60;;;;;;6154097;23;20101;-87
2021/01/03 10:21:40;;;;;;;16.08;10.25;;;4.20;85.80;;;;;;6152138;23;20040;-88
2021/01/03 10:24:38;;;;;;;;;;;;;;;;;;;;;
2021/01/03 10:27:04;;;;;;;14.70;9.68;;;4.20;85.20;;;;;;6153015;23;20385;-87
2021/01/03 10:30:01;;;;;;;16.08;10.25;;;4.20;85.20;;;;;;6153524;23;20037;-89
2021/01/03 10:32:55;;;;;;;16.58;10.13;;;4.20;84.90;;;;;;6153358;23;20005;-87
2021/01/03 10:35:40;;;;;;;16.33;10.07;;;4.20;84.60;;;;;;6153919;23;20001;-85
2021/01/03 10:38:26;;;;;;;;;;;;;;;;;;;;;
2021/01/03 10:41:10;;;;;;;15.90;10.05;;;4.20;84.90;;;;;;6155077;23;20085;-87
2021/01/03 10:44:04;;;;;;;;;;;;;;;;;;;;;
2021/01/03 10:46:43;;;;;;;18.05;9.95;;;4.20;84.90;;;;;;6154078;23;20491;-87
2021/01/03 10:52:20;;;;;;;14.57;9.80;;;4.20;84.70;;;;;;6130100;23;20085;-92
2021/01/03 10:55:15;;;;;;;15.10;9.95;;;4.20;84.60;;;;;;6131098;23;20013;-89
2021/01/03 11:01:15;;;;;;;14.07;9.32;;;4.20;84.10;;;;;;6099352;23;20069;-90
2021/01/03 11:04:19;;;;;;;;;;;;;;;;;;;;;
2021/01/03 11:26:57;;;;;;;16.63;9.70;;;4.20;83.50;;;;;;6154264;23;20005;-89
2021/01/03 11:29:38;;;;;;;15.80;9.52;;;4.20;83.20;;;;;;6085452;23;20005;-88
2021/01/03 11:35:25;;;;;;;;;;;;;;;;;;;;;
2021/01/03 11:38:09;;;;;;;;;;;;;;;;;;;;;
2021/01/03 11:41:25;;;;;;;;;;;;;;;;;;;;;
2021/01/03 11:44:11;;;;;;;13.07;8.02;;;4.30;83.70;;;;;;6152887;23;20092;-93
2021/01/03 11:49:51;;;;;;;12.25;7.22;;;4.30;83.80;;;;;;6133657;23;20006;-90
2021/01/03 11:52:37;;;;;;;;;;;;;;;;;;;;;
2021/01/03 11:59:11;;;;;;;12.43;8.20;;;4.30;83.90;;;;;;6138919;23;20006;-90
2021/01/03 12:02:15;;;;;;;;;;;;;;;;;;;;;
2021/01/03 12:05:50;;;;;;;;;;;;;;;;;;;;;
2021/01/03 12:21:55;;;;;;;14.95;8.65;;;4.30;83.50;;;;;;6067565;23;20021;-89
2021/01/03 12:25:08;;;;;;;16.58;9.80;;;4.30;83.50;;;;;;6129115;23;20029;-88
2021/01/03 12:28:10;;;;;;;18.13;10.02;;;4.30;83.60;;;;;;6132373;23;20068;-91
2021/01/03 12:31:02;;;;;;;19.20;10.15;;;4.30;83.80;;;;;;6107488;23;20014;-88
2021/01/03 12:33:43;;;;;;;;;;;;;;;;;;;;;
2021/01/03 12:36:52;;;;;;;15.95;9.38;;;4.30;83.80;;;;;;6155711;23;20085;-90
2021/01/03 12:39:30;;;;;;;;;;;;;;;;;;;;;
2021/01/03 12:42:36;;;;;;;18.85;10.75;;;4.40;84.50;;;;;;6155822;23;20077;-89
2021/01/03 12:45:25;;;;;;;18.25;11.32;;;4.40;84.70;;;;;;6135304;23;20097;-90
2021/01/03 12:48:07;;;;;;;;;;;;;;;;;;;;;
2021/01/03 12:50:46;;;;;;;;;;;;;;;;;;;;;
2021/01/03 12:54:09;;;;;;;24.17;13.93;;;4.50;84.80;;;;;;6155491;23;20088;-89
2021/01/03 12:57:15;;;;;;;;;;;4.50;84.90;;;;;;6129407;23;20012;-90
2021/01/03 12:59:59;;;;;;;21.55;13.13;;;4.40;84.80;;;;;;6125863;23;19967;-89
2021/01/03 13:03:04;;;;;;;24.40;13.75;;;4.40;84.90;;;;;;6128999;23;20052;-90
2021/01/03 13:05:41;;;;;;;;;;;;;;;;;;;;;
2021/01/03 13:08:30;;;;;;;;;;;;;;;;;;;;;
2021/01/03 13:11:09;;;;;;;;;;;;;;;;;;;;;
2021/01/03 13:13:45;;;;;;;24.73;14.60;;;4.50;85.00;;;;;;6154891;23;20088;-90
2021/01/03 13:16:29;;;;;;;25.05;14.90;;;4.50;85.10;;;;;;6103994;23;20010;-90
2021/01/03 13:19:08;;;;;;;22.88;13.52;;;4.50;85.10;;;;;;6081984;23;20416;-89
2021/01/03 13:22:07;;;;;;;;;;;;;;;;;;;;;
2021/01/03 13:25:03;;;;;;;20.77;12.77;;;4.50;84.40;;;;;;6150304;23;20478;-89
2021/01/03 13:27:37;;;;;;;25.00;14.25;;;4.50;84.50;;;;;;6153353;23;20008;-89
2021/01/03 13:30:23;;;;;;;25.92;14.77;;;4.50;84.50;;;;;;6130358;23;20005;-89
2021/01/03 13:33:00;;;;;;;21.70;13.52;;;4.50;84.40;;;;;;6132013;23;20033;-89
2021/01/03 13:35:45;;;;;;;;;;;;;;;;;;;;;
2021/01/03 13:38:44;;;;;;;;;;;;;;;;;;;;;
2021/01/03 13:41:23;;;;;;;20.27;13.05;;;4.50;84.20;;;;;;6154187;23;20084;-89
2021/01/03 13:44:30;;;;;;;19.23;11.75;;;4.50;83.70;;;;;;6154158;23;20423;-90
2021/01/03 13:56:37;;;;;;;21.75;12.35;;;4.50;83.70;;;;;;6134027;23;20088;-89
2021/01/03 13:59:03;;;;;;;21.20;13.02;;;4.60;83.80;;;;;;6150480;23;20014;-88
2021/01/03 14:01:48;;;;;;;;;;;;;;;;;;;;;
2021/01/03 14:04:25;;;;;;;17.73;10.75;;;4.60;83.70;;;;;;6154280;23;20084;-88
2021/01/03 14:07:04;;;;;;;21.48;13.35;;;4.60;84.50;;;;;;6153484;23;20371;-87
2021/01/03 14:10:12;;;;;;;18.98;11.98;;;4.60;83.80;;;;;;6153243;23;20060;-88
2021/01/03 14:13:08;;;;;;;;;;;;;;;;;;;;;
2021/01/03 14:15:58;;;;;;;21.52;13.43;;;4.60;83.40;;;;;;6154833;23;20057;-88
2021/01/03 14:18:43;;;;;;;18.75;11.30;;;4.60;83.20;;;;;;6131046;23;20450;-87
2021/01/03 14:24:13;;;;;;;;;;;4.60;83.60;;;;;;6137493;23;20017;-89
2021/01/03 14:26:54;;;;;;;17.50;10.25;;;4.60;83.50;;;;;;6153467;23;20416;-88
2021/01/03 14:29:24;;;;;;;16.17;10.43;;;4.60;83.10;;;;;;6128223;23;20395;-88
2021/01/03 14:32:25;;;;;;;15.23;9.27;;;4.60;83.00;;;;;;6129226;23;20012;-88
2021/01/03 14:35:10;;;;;;;15.98;9.60;;;4.60;83.00;;;;;;6145944;23;20044;-91
2021/01/03 14:38:34;;;;;;;;;;;;;;;;;;;;;
2021/01/03 14:41:40;;;;;;;18.55;10.40;;;4.60;83.10;;;;;;6114379;23;20084;-88
2021/01/03 14:44:34;;;;;;;;;;;;;;;;;;;;;
2021/01/03 14:47:43;;;;;;;16.90;10.48;;;4.60;83.00;;;;;;6153995;23;20081;-89
2021/01/03 14:51:45;;;;;;;;;;;;;;;;;;;;;
2021/01/03 15:01:08;;;;;;;;;;;;;;;;;;;;;
2021/01/03 15:04:19;;;;;;;14.30;8.68;;;4.60;82.60;;;;;;6154756;23;20088;-89
2021/01/03 15:07:14;;;;;;;14.20;8.90;;;4.50;82.30;;;;;;6117421;23;20010;-88
2021/01/03 15:13:10;;;;;;;14.25;9.85;;;4.50;81.70;;;;;;6155347;23;20356;-89
2021/01/03 15:16:27;;;;;;;12.43;7.72;;;4.50;81.70;;;;;;6154051;23;20446;-90
2021/01/03 15:19:29;;;;;;;11.95;7.93;;;4.50;81.60;;;;;;6094924;23;20002;-90
2021/01/03 15:22:21;;;;;;;14.35;8.07;;;4.50;81.60;;;;;;6140332;23;20098;-88
2021/01/03 15:25:14;;;;;;;13.20;7.80;;;4.50;81.60;;;;;;6152846;23;20024;-90
2021/01/03 15:31:26;;;;;;;10.40;7.13;;;4.50;81.70;;;;;;6127892;23;20080;-89
2021/01/03 15:34:06;;;;;;;13.73;7.80;;;4.40;81.70;;;;;;6058876;23;20060;-89
2021/01/03 15:36:35;;;;;;;11.82;7.20;;;4.40;81.60;;;;;;6155728;23;20254;-89
2021/01/03 15:42:59;;;;;;;9.95;6.05;;;4.40;81.50;;;;;;6137660;23;20037;-89
2021/01/03 15:45:37;;;;;;;;;;;;;;;;;;;;;
2021/01/03 15:48:26;;;;;;;10.85;7.47;;;4.40;81.30;;;;;;6156764;23;20084;-92
2021/01/03 15:51:27;;;;;;;;;;;;;;;;;;;;;
2021/01/03 15:57:49;;;;;;;;;;;;;;;;;;;;;
2021/01/03 16:00:41;;;;;;;;;;;;;;;;;;;;;
2021/01/03 16:03:17;;;;;;;;;;;;;;;;;;;;;
2021/01/03 16:05:51;;;;;;;8.45;5.30;;;4.30;80.00;;;;;;6155590;23;20072;-87
2021/01/03 16:08:24;;;;;;;9.23;6.05;;;4.30;79.50;;;;;;6153771;23;20029;-87
2021/01/03 16:13:51;;;;;;;;;;;;;;;;;;;;;
2021/01/03 16:16:50;;;;;;;8.80;5.70;;;4.20;79.10;;;;;;6155424;23;20105;-88
2021/01/03 16:19:39;;;;;;;8.27;5.20;;;4.30;79.30;;;;;;6138724;23;20025;-87
2021/01/03 16:22:46;;;;;;;8.18;5.38;;;4.30;79.30;;;;;;6154232;23;20160;-86
2021/01/03 16:25:44;;;;;;;9.38;5.85;;;4.30;79.20;;;;;;6154243;23;20009;-87
2021/01/03 16:28:48;;;;;;;7.53;5.30;;;4.20;79.00;;;;;;6154079;23;20005;-88
2021/01/03 16:31:31;;;;;;;7.13;5.00;;;4.20;79.00;;;;;;6153771;23;20010;-88
2021/01/03 16:34:12;;;;;;;8.35;5.20;;;4.20;79.00;;;;;;6155385;23;20013;-87
2021/01/03 16:37:10;;;;;;;7.70;5.03;;;4.20;78.70;;;;;;6154294;23;20011;-87
2021/01/03 16:47:26;;;;;;;9.57;5.57;;;4.20;79.00;;;;;;6123798;23;20009;-86
2021/01/03 16:50:05;;;;;;;9.38;6.05;;;4.20;79.40;;;;;;6013217;23;20003;-86
2021/01/03 16:52:44;;;;;;;8.20;5.60;;;4.20;79.20;;;;;;6013414;23;20003;-86
2021/01/03 16:55:30;;;;;;;8.80;6.15;;;4.20;79.40;;;;;;6102956;23;20005;-87
2021/01/03 16:58:28;;;;;;;7.45;5.40;;;4.10;79.50;;;;;;6155049;23;20040;-86
2021/01/03 17:01:03;;;;;;;9.57;6.47;;;4.10;79.70;;;;;;6089146;23;20009;-87
2021/01/03 17:03:42;;;;;;;8.68;5.90;;;4.10;80.00;;;;;;6154529;23;20041;-88
2021/01/03 17:06:48;;;;;;;10.60;6.78;;;4.10;80.10;;;;;;6155896;23;20490;-87
2021/01/03 17:09:52;;;;;;;9.15;6.07;;;4.10;80.30;;;;;;6112113;23;20002;-88